createdAt,value
2023-01-30T00:00:08.342Z,32.92
2023-01-30T00:02:35.135Z,31.92
2023-01-30T00:05:02.005Z,31.57
2023-01-30T00:07:28.863Z,26.52
2023-01-30T00:09:55.537Z,33.28
2023-01-30T00:12:22.287Z,31.73
2023-01-30T00:14:48.986Z,30.58
2023-01-30T00:17:15.823Z,29.27
2023-01-30T00:19:42.583Z,25.65
2023-01-30T00:22:09.303Z,30.30
2023-01-30T00:24:36.105Z,31.35
2023-01-30T00:27:03.027Z,33.05
2023-01-30T00:29:29.859Z,30.33
2023-01-30T00:31:56.612Z,36.67
2023-01-30T00:34:23.475Z,33.75
2023-01-30T00:39:36.893Z,40.15
2023-01-30T00:42:22.595Z,34.53
2023-01-30T00:45:07.740Z,31.85
2023-01-30T00:47:34.564Z,36.20
2023-01-30T00:50:01.321Z,34.38
2023-01-30T00:52:28.250Z,33.70
2023-01-30T00:54:54.996Z,30.13
2023-01-30T00:57:21.735Z,26.83
2023-01-30T00:59:49.698Z,29.73
2023-01-30T01:02:17.137Z,33.63
2023-01-30T01:04:43.901Z,33.28
2023-01-30T01:07:14.956Z,29.93
2023-01-30T01:09:42.100Z,33.40
2023-01-30T01:12:09.272Z,33.25
2023-01-30T01:14:36.082Z,29.00
2023-01-30T01:17:03.052Z,29.58
2023-01-30T01:19:30.043Z,32.83
2023-01-30T01:21:56.858Z,32.97
2023-01-30T01:24:23.649Z,31.83
2023-01-30T01:26:50.942Z,28.27
2023-01-30T01:29:17.901Z,29.63
2023-01-30T01:31:45.564Z,36.30
2023-01-30T01:34:12.597Z,29.83
2023-01-30T01:36:53.214Z,30.67
2023-01-30T01:39:20.996Z,26.20
2023-01-30T01:41:49.699Z,30.90
2023-01-30T01:44:17.350Z,28.73
2023-01-30T01:47:00.806Z,33.17
2023-01-30T01:49:35.394Z,31.08
2023-01-30T01:52:13.510Z,30.27
2023-01-30T01:54:55.997Z,27.90
2023-01-30T01:57:28.792Z,25.57
2023-01-30T02:00:02.664Z,28.40
2023-01-30T02:02:46.363Z,29.17
2023-01-30T02:05:16.216Z,28.95
2023-01-30T02:08:24.722Z,27.33
2023-01-30T02:11:03.944Z,25.40
2023-01-30T02:13:32.039Z,26.77
2023-01-30T02:16:00.959Z,25.52
2023-01-30T02:18:31.230Z,31.17
2023-01-30T02:21:29.360Z,24.92
2023-01-30T02:24:16.070Z,31.97
2023-01-30T02:26:58.919Z,28.77
2023-01-30T02:29:32.070Z,23.25
2023-01-30T02:32:05.011Z,27.95
2023-01-30T02:34:50.096Z,24.33
2023-01-30T02:37:35.659Z,26.17
2023-01-30T02:40:11.384Z,28.10
2023-01-30T02:43:02.116Z,29.77
2023-01-30T02:45:32.690Z,23.67
2023-01-30T02:48:06.149Z,31.13
2023-01-30T02:50:48.019Z,31.27
2023-01-30T02:53:15.038Z,32.47
2023-01-30T02:55:43.040Z,29.42
2023-01-30T02:58:11.131Z,31.20
2023-01-30T03:01:19.449Z,36.03
2023-01-30T03:04:11.233Z,32.47
2023-01-30T03:07:12.492Z,27.63
2023-01-30T03:09:48.750Z,32.70
2023-01-30T03:12:26.559Z,32.47
2023-01-30T03:15:01.653Z,28.58
2023-01-30T03:17:31.842Z,30.30
2023-01-30T03:19:59.683Z,30.73
2023-01-30T03:22:26.591Z,34.75
2023-01-30T03:24:54.561Z,31.85
2023-01-30T03:27:22.591Z,30.88
2023-01-30T03:29:49.484Z,33.20
2023-01-30T03:32:16.251Z,34.13
2023-01-30T03:34:43.051Z,31.58
2023-01-30T03:37:10.400Z,29.75
2023-01-30T03:39:37.389Z,28.40
2023-01-30T03:42:05.459Z,30.17
2023-01-30T03:44:32.387Z,29.88
2023-01-30T03:46:59.336Z,29.65
2023-01-30T03:49:26.475Z,30.23
2023-01-30T03:51:54.133Z,28.30
2023-01-30T03:54:21.066Z,26.33
2023-01-30T03:56:48.168Z,26.75
2023-01-30T03:59:14.972Z,30.13
2023-01-30T04:01:48.862Z,26.60
2023-01-30T04:04:15.594Z,28.55
2023-01-30T04:06:42.475Z,28.47
2023-01-30T04:09:10.173Z,25.40
2023-01-30T04:11:42.030Z,28.35
2023-01-30T04:14:09.320Z,27.83
2023-01-30T04:16:45.944Z,34.45
2023-01-30T04:19:35.902Z,26.70
2023-01-30T04:22:02.736Z,28.38
2023-01-30T04:24:30.180Z,30.98
2023-01-30T04:26:57.048Z,30.27
2023-01-30T04:29:25.144Z,34.05
2023-01-30T04:31:53.370Z,31.40
2023-01-30T04:34:23.552Z,28.85
2023-01-30T04:36:50.471Z,30.48
2023-01-30T04:39:17.987Z,31.77
2023-01-30T04:41:45.647Z,29.95
2023-01-30T04:44:12.482Z,30.67
2023-01-30T04:46:57.983Z,30.25
2023-01-30T04:49:25.058Z,30.50
2023-01-30T04:51:51.874Z,27.83
2023-01-30T04:54:18.679Z,28.70
2023-01-30T04:56:45.508Z,30.97
2023-01-30T04:59:12.311Z,24.35
2023-01-30T05:01:43.263Z,27.00
2023-01-30T05:04:10.508Z,21.40
2023-01-30T05:06:37.601Z,22.58
2023-01-30T05:09:04.819Z,25.33
2023-01-30T05:11:32.917Z,22.60
2023-01-30T05:13:59.908Z,27.85
2023-01-30T05:16:27.427Z,22.45
2023-01-30T05:18:54.110Z,21.63
2023-01-30T05:21:26.313Z,24.33
2023-01-30T05:23:53.554Z,21.13
2023-01-30T05:26:20.945Z,22.95
2023-01-30T05:28:55.291Z,21.90
2023-01-30T05:31:22.218Z,18.75
2023-01-30T05:33:50.413Z,24.87
2023-01-30T05:36:18.879Z,24.50
2023-01-30T05:38:46.181Z,23.60
2023-01-30T05:41:15.097Z,28.02
2023-01-30T05:43:42.213Z,25.45
2023-01-30T05:46:12.621Z,20.30
2023-01-30T05:48:39.699Z,26.52
2023-01-30T05:51:06.897Z,25.25
2023-01-30T05:53:35.194Z,21.77
2023-01-30T05:56:04.859Z,23.85
2023-01-30T05:58:32.548Z,19.47
2023-01-30T06:01:03.715Z,22.58
2023-01-30T06:03:31.291Z,23.25
2023-01-30T06:05:58.415Z,26.23
2023-01-30T06:08:26.680Z,22.88
2023-01-30T06:10:53.501Z,22.93
2023-01-30T06:13:20.368Z,22.60
2023-01-30T06:15:47.556Z,24.27
2023-01-30T06:18:14.302Z,20.10
2023-01-30T06:20:41.144Z,32.13
2023-01-30T06:23:08.009Z,20.60
2023-01-30T06:25:34.777Z,20.00
2023-01-30T06:28:01.655Z,20.70
2023-01-30T06:30:28.525Z,18.98
2023-01-30T06:32:55.413Z,18.85
2023-01-30T06:35:22.181Z,20.63
2023-01-30T06:37:49.078Z,21.17
2023-01-30T06:40:16.363Z,21.92
2023-01-30T06:42:47.398Z,19.70
2023-01-30T06:45:19.589Z,18.08
2023-01-30T06:47:54.644Z,25.03
2023-01-30T06:50:24.939Z,18.08
2023-01-30T06:52:52.909Z,21.70
2023-01-30T06:55:22.287Z,18.88
2023-01-30T06:57:49.422Z,21.38
2023-01-30T07:00:20.713Z,23.17
2023-01-30T07:02:47.748Z,23.20
2023-01-30T07:05:14.713Z,22.75
2023-01-30T07:07:41.742Z,24.95
2023-01-30T07:10:09.461Z,23.88
2023-01-30T07:12:37.045Z,20.60
2023-01-30T07:15:05.385Z,21.15
2023-01-30T07:17:32.540Z,20.08
2023-01-30T07:19:59.626Z,20.88
2023-01-30T07:22:26.537Z,17.10
2023-01-30T07:24:53.355Z,17.60
2023-01-30T07:27:20.755Z,15.77
2023-01-30T07:29:47.533Z,17.45
2023-01-30T07:32:19.173Z,17.50
2023-01-30T07:34:49.218Z,18.02
2023-01-30T07:37:16.049Z,18.37
2023-01-30T07:39:42.790Z,17.52
2023-01-30T07:42:09.578Z,18.92
2023-01-30T07:44:36.867Z,18.10
2023-01-30T07:47:03.621Z,13.88
2023-01-30T07:49:30.547Z,16.63
2023-01-30T07:51:57.358Z,17.13
2023-01-30T07:54:24.244Z,18.00
2023-01-30T07:56:51.072Z,18.63
2023-01-30T07:59:17.945Z,18.02
2023-01-30T08:01:44.632Z,17.77
2023-01-30T08:04:11.384Z,19.50
2023-01-30T08:06:39.697Z,16.52
2023-01-30T08:09:07.563Z,19.25
2023-01-30T08:11:35.128Z,17.40
2023-01-30T08:14:02.525Z,16.07
2023-01-30T08:16:32.176Z,18.02
2023-01-30T08:18:59.194Z,15.68
2023-01-30T08:21:26.008Z,15.25
2023-01-30T08:23:52.850Z,22.20
2023-01-30T08:26:19.645Z,25.57
2023-01-30T08:28:46.496Z,19.80
2023-01-30T08:31:15.153Z,20.98
2023-01-30T08:33:42.023Z,17.23
2023-01-30T08:36:09.313Z,16.40
2023-01-30T08:38:36.100Z,18.93
2023-01-30T08:41:05.565Z,16.70
2023-01-30T08:43:32.338Z,14.60
2023-01-30T08:45:59.146Z,18.88
2023-01-30T08:48:28.188Z,13.73
2023-01-30T08:50:56.496Z,14.65
2023-01-30T08:53:23.438Z,14.77
2023-01-30T08:55:53.572Z,15.55
2023-01-30T08:58:21.948Z,15.70
2023-01-30T09:00:50.449Z,14.90
2023-01-30T09:03:18.517Z,16.00
2023-01-30T09:05:45.642Z,15.30
2023-01-30T09:08:12.955Z,13.68
2023-01-30T09:10:39.766Z,12.20
2023-01-30T09:13:09.499Z,13.35
2023-01-30T09:15:36.560Z,11.10
2023-01-30T09:18:05.034Z,11.82
2023-01-30T09:20:32.068Z,11.50
2023-01-30T09:22:58.924Z,11.48
2023-01-30T09:25:25.908Z,13.35
2023-01-30T09:27:52.835Z,10.15
2023-01-30T09:30:20.206Z,10.55
2023-01-30T09:32:48.255Z,11.60
2023-01-30T09:35:15.225Z,9.77
2023-01-30T09:37:52.764Z,9.65
2023-01-30T09:40:31.343Z,9.93
2023-01-30T09:43:07.116Z,11.88
2023-01-30T09:45:43.337Z,6.85
2023-01-30T09:48:44.400Z,9.45
2023-01-30T09:51:22.425Z,7.15
2023-01-30T09:54:07.553Z,7.75
2023-01-30T09:56:34.366Z,9.07
2023-01-30T09:59:05.271Z,8.23
2023-01-30T10:01:44.436Z,12.02
2023-01-30T10:04:34.435Z,9.57
2023-01-30T10:07:12.919Z,8.10
2023-01-30T10:09:57.721Z,10.32
2023-01-30T10:12:33.471Z,8.23
2023-01-30T10:15:08.118Z,8.05
2023-01-30T10:18:19.254Z,8.82
2023-01-30T10:21:06.293Z,10.25
2023-01-30T10:24:05.866Z,9.18
2023-01-30T10:26:33.650Z,10.15
2023-01-30T10:29:18.180Z,9.48
2023-01-30T10:31:53.464Z,8.95
2023-01-30T10:34:34.498Z,11.35
2023-01-30T10:37:16.410Z,9.38
2023-01-30T10:40:04.168Z,12.55
2023-01-30T10:42:49.351Z,12.23
2023-01-30T10:45:20.981Z,9.57
2023-01-30T10:48:16.642Z,12.50
2023-01-30T10:51:11.003Z,9.27
2023-01-30T10:54:14.998Z,9.27
2023-01-30T10:57:19.419Z,9.30
2023-01-30T11:00:10.464Z,9.55
2023-01-30T11:03:15.111Z,7.85
2023-01-30T11:05:48.476Z,10.57
2023-01-30T11:08:27.227Z,9.02
2023-01-30T11:10:56.085Z,8.75
2023-01-30T11:13:30.415Z,6.95
2023-01-30T11:16:04.121Z,8.35
2023-01-30T11:21:38.503Z,9.65
2023-01-30T11:24:17.292Z,11.02
2023-01-30T11:26:47.994Z,11.23
2023-01-30T11:29:31.226Z,15.52
2023-01-30T11:32:04.212Z,13.30
2023-01-30T11:34:31.167Z,13.63
2023-01-30T11:37:36.687Z,16.52
2023-01-30T11:40:26.977Z,11.30
2023-01-30T11:43:04.776Z,11.70
2023-01-30T11:45:43.911Z,11.75
2023-01-30T11:48:33.081Z,13.10
2023-01-30T11:51:07.325Z,13.90
2023-01-30T11:53:38.920Z,17.25
2023-01-30T11:56:21.432Z,15.95
2023-01-30T11:58:58.231Z,11.27
2023-01-30T12:01:31.412Z,14.15
2023-01-30T12:03:59.453Z,11.30
2023-01-30T12:06:31.989Z,11.50
2023-01-30T12:08:59.738Z,12.82
2023-01-30T12:11:45.238Z,12.95
2023-01-30T12:14:24.212Z,12.30
2023-01-30T12:17:03.026Z,9.77
2023-01-30T12:19:39.990Z,13.18
2023-01-30T12:22:22.101Z,13.07
2023-01-30T12:24:59.174Z,14.20
2023-01-30T12:27:48.744Z,14.50
2023-01-30T12:30:28.213Z,10.20
2023-01-30T12:36:10.959Z,8.73
2023-01-30T12:38:53.105Z,9.43
2023-01-30T12:41:47.377Z,8.23
2023-01-30T12:44:19.738Z,10.25
2023-01-30T12:47:17.780Z,8.52
2023-01-30T12:50:21.100Z,7.70
2023-01-30T12:53:08.999Z,9.13
2023-01-30T12:55:44.590Z,8.70
2023-01-30T12:58:24.288Z,8.00
2023-01-30T13:00:57.061Z,10.20
2023-01-30T13:03:34.736Z,9.95
2023-01-30T13:06:16.145Z,5.97
2023-01-30T13:08:55.031Z,10.90
2023-01-30T13:11:37.097Z,6.60
2023-01-30T13:14:26.275Z,6.55
2023-01-30T13:16:57.671Z,7.60
2023-01-30T13:19:44.842Z,5.35
2023-01-30T13:22:35.809Z,6.15
2023-01-30T13:25:15.793Z,5.03
2023-01-30T13:27:47.036Z,11.02
2023-01-30T13:30:18.181Z,5.22
2023-01-30T13:32:51.818Z,5.50
2023-01-30T13:35:29.621Z,5.47
2023-01-30T13:37:57.891Z,6.15
2023-01-30T13:40:28.752Z,5.25
2023-01-30T13:43:21.233Z,6.05
2023-01-30T13:45:50.354Z,4.68
2023-01-30T13:48:42.203Z,6.75
2023-01-30T13:51:24.121Z,6.13
2023-01-30T13:53:50.857Z,7.15
2023-01-30T13:56:58.757Z,7.90
2023-01-30T14:00:02.934Z,6.18
2023-01-30T14:03:04.215Z,8.30
2023-01-30T14:05:57.332Z,7.65
2023-01-30T14:08:26.989Z,8.93
2023-01-30T14:10:55.811Z,8.65
2023-01-30T14:13:24.518Z,7.28
2023-01-30T14:16:01.676Z,7.35
2023-01-30T14:18:36.033Z,6.65
2023-01-30T14:21:21.271Z,7.07
2023-01-30T14:24:22.020Z,7.93
2023-01-30T14:26:48.881Z,6.88
2023-01-30T14:29:42.958Z,6.25
2023-01-30T14:32:12.886Z,9.23
2023-01-30T14:34:44.693Z,5.95
2023-01-30T14:37:38.792Z,5.73
2023-01-30T14:40:24.135Z,8.13
2023-01-30T14:43:12.395Z,6.78
2023-01-30T14:45:53.975Z,10.40
2023-01-30T14:48:42.920Z,7.97
2023-01-30T14:51:33.620Z,8.53
2023-01-30T14:54:13.322Z,7.10
2023-01-30T14:56:47.280Z,5.72
2023-01-30T14:59:16.920Z,6.07
2023-01-30T15:02:14.477Z,7.57
2023-01-30T15:04:52.182Z,7.00
2023-01-30T15:07:27.778Z,8.07
2023-01-30T15:10:03.378Z,5.68
2023-01-30T15:12:48.166Z,7.90
2023-01-30T15:15:19.406Z,6.35
2023-01-30T15:18:08.683Z,6.63
2023-01-30T15:20:48.426Z,13.10
2023-01-30T15:23:36.208Z,10.25
2023-01-30T15:26:15.477Z,5.47
2023-01-30T15:29:03.527Z,6.53
2023-01-30T15:31:30.491Z,5.17
2023-01-30T15:33:57.488Z,5.00
2023-01-30T15:36:34.210Z,7.20
2023-01-30T15:39:23.623Z,6.32
2023-01-30T15:41:52.741Z,5.20
2023-01-30T15:44:49.794Z,4.60
2023-01-30T15:47:41.007Z,6.28
2023-01-30T15:50:09.977Z,5.32
2023-01-30T15:52:44.397Z,4.07
2023-01-30T15:55:19.962Z,5.30
2023-01-30T15:57:52.654Z,4.87
2023-01-30T16:00:31.817Z,3.83
2023-01-30T16:03:00.298Z,5.25
2023-01-30T16:05:28.335Z,7.00
2023-01-30T16:07:56.777Z,7.68
2023-01-30T16:10:26.688Z,7.53
2023-01-30T16:12:56.327Z,6.57
2023-01-30T16:15:40.106Z,8.07
2023-01-30T16:18:25.895Z,7.18
2023-01-30T16:23:58.287Z,5.60
2023-01-30T16:26:25.147Z,6.38
2023-01-30T16:29:01.371Z,8.18
2023-01-30T16:31:37.267Z,6.10
2023-01-30T16:34:04.551Z,6.22
2023-01-30T16:36:38.138Z,7.07
2023-01-30T16:39:30.693Z,7.28
2023-01-30T16:41:59.258Z,7.47
2023-01-30T16:44:30.841Z,9.55
2023-01-30T16:47:02.399Z,6.43
2023-01-30T16:49:35.275Z,8.40
2023-01-30T16:52:22.212Z,8.18
2023-01-30T16:54:57.940Z,9.57
2023-01-30T16:57:35.968Z,8.20
2023-01-30T17:00:08.015Z,7.32
2023-01-30T17:02:41.052Z,8.77
2023-01-30T17:05:19.380Z,7.53
2023-01-30T17:07:47.622Z,10.23
2023-01-30T17:10:42.212Z,9.02
2023-01-30T17:13:33.679Z,11.70
2023-01-30T17:16:27.452Z,9.25
2023-01-30T17:18:56.483Z,8.60
2023-01-30T17:21:26.419Z,10.93
2023-01-30T17:23:56.542Z,11.55
2023-01-30T17:26:23.934Z,11.77
2023-01-30T17:28:51.013Z,9.10
2023-01-30T17:31:19.215Z,8.13
2023-01-30T17:33:46.367Z,11.02
2023-01-30T17:36:19.547Z,8.68
2023-01-30T17:38:47.367Z,9.05
2023-01-30T17:41:22.871Z,8.50
2023-01-30T17:43:50.973Z,7.88
2023-01-30T17:46:18.965Z,9.95
2023-01-30T17:48:46.081Z,8.07
2023-01-30T17:51:14.385Z,8.90
2023-01-30T17:53:42.208Z,9.65
2023-01-30T17:56:17.775Z,10.32
2023-01-30T17:58:44.613Z,7.15
2023-01-30T18:01:11.964Z,9.88
2023-01-30T18:03:38.754Z,8.85
2023-01-30T18:06:05.843Z,11.13
2023-01-30T18:08:32.591Z,9.75
2023-01-30T18:10:59.265Z,11.95
2023-01-30T18:13:25.985Z,10.25
2023-01-30T18:15:57.676Z,9.73
2023-01-30T18:18:24.469Z,10.20
2023-01-30T18:20:51.852Z,9.40
2023-01-30T18:23:19.797Z,8.68
2023-01-30T18:25:46.565Z,10.27
2023-01-30T18:28:14.314Z,6.75
2023-01-30T18:30:41.196Z,9.93
2023-01-30T18:33:07.973Z,10.40
2023-01-30T18:35:34.746Z,8.13
2023-01-30T18:38:02.924Z,8.52
2023-01-30T18:40:29.950Z,8.95
2023-01-30T18:42:56.744Z,9.02
2023-01-30T18:45:23.522Z,10.80
2023-01-30T18:47:50.257Z,10.57
2023-01-30T18:50:17.537Z,11.23
2023-01-30T18:52:44.391Z,8.50
2023-01-30T18:55:11.208Z,11.57
2023-01-30T18:57:37.992Z,10.27
2023-01-30T19:00:05.344Z,9.65
2023-01-30T19:02:32.302Z,10.43
2023-01-30T19:04:59.140Z,9.18
2023-01-30T19:07:25.843Z,7.45
2023-01-30T19:09:52.667Z,8.63
2023-01-30T19:12:37.710Z,9.63
2023-01-30T19:15:05.705Z,9.07
2023-01-30T19:17:32.408Z,8.55
2023-01-30T19:20:01.894Z,10.57
2023-01-30T19:22:28.700Z,9.82
2023-01-30T19:24:55.765Z,8.68
2023-01-30T19:27:23.545Z,9.80
2023-01-30T19:29:50.465Z,8.15
2023-01-30T19:32:17.271Z,9.57
2023-01-30T19:34:45.208Z,8.30
2023-01-30T19:37:11.971Z,9.38
2023-01-30T19:39:38.713Z,8.20
2023-01-30T19:42:05.502Z,7.18
2023-01-30T19:44:32.191Z,10.40
2023-01-30T19:46:58.941Z,8.05
2023-01-30T19:49:25.680Z,10.32
2023-01-30T19:51:52.418Z,8.07
2023-01-30T19:54:19.180Z,11.77
2023-01-30T19:56:48.372Z,11.55
2023-01-30T19:59:16.667Z,10.40
2023-01-30T20:01:43.991Z,9.32
2023-01-30T20:04:11.174Z,10.50
2023-01-30T20:06:44.247Z,11.27
2023-01-30T20:09:11.519Z,8.17
2023-01-30T20:11:40.728Z,9.95
2023-01-30T20:14:08.259Z,10.27
2023-01-30T20:16:35.940Z,11.93
2023-01-30T20:19:05.931Z,10.45
2023-01-30T20:21:33.393Z,11.93
2023-01-30T20:24:01.090Z,9.25
2023-01-30T20:26:39.415Z,10.50
2023-01-30T20:29:08.279Z,10.18
2023-01-30T20:31:35.110Z,9.63
2023-01-30T20:34:03.401Z,9.52
2023-01-30T20:36:30.559Z,12.60
2023-01-30T20:39:01.825Z,9.75
2023-01-30T20:41:28.727Z,10.55
2023-01-30T20:43:59.463Z,12.63
2023-01-30T20:46:28.777Z,10.00
2023-01-30T20:48:57.312Z,10.15
2023-01-30T20:51:27.278Z,10.27
2023-01-30T20:53:56.523Z,9.65
2023-01-30T20:56:25.333Z,6.85
2023-01-30T20:58:52.464Z,9.05
2023-01-30T21:01:22.255Z,10.02
2023-01-30T21:03:53.447Z,9.88
2023-01-30T21:06:41.859Z,10.70
2023-01-30T21:09:15.792Z,7.60
2023-01-30T21:11:42.819Z,9.17
2023-01-30T21:14:09.525Z,8.15
2023-01-30T21:16:37.158Z,11.48
2023-01-30T21:19:07.108Z,9.82
2023-01-30T21:21:38.270Z,11.18
2023-01-30T21:24:10.937Z,10.65
2023-01-30T21:26:41.146Z,13.80
2023-01-30T21:29:08.657Z,10.05
2023-01-30T21:31:37.526Z,7.03
2023-01-30T21:34:05.160Z,9.82
2023-01-30T21:36:32.046Z,8.60
2023-01-30T21:39:21.872Z,8.50
2023-01-30T21:42:07.198Z,9.82
2023-01-30T21:44:39.145Z,10.95
2023-01-30T21:47:07.295Z,12.85
2023-01-30T21:49:34.481Z,10.57
2023-01-30T21:52:01.285Z,7.90
2023-01-30T21:54:28.198Z,8.88
2023-01-30T21:56:55.674Z,11.18
2023-01-30T21:59:22.566Z,7.22
2023-01-30T22:01:49.407Z,8.30
2023-01-30T22:04:16.715Z,7.53
2023-01-30T22:06:43.944Z,11.20
2023-01-30T22:09:15.649Z,7.78
2023-01-30T22:11:42.487Z,10.25
2023-01-30T22:14:13.236Z,9.75
2023-01-30T22:16:40.698Z,9.68
2023-01-30T22:19:07.842Z,10.52
2023-01-30T22:21:37.445Z,9.68
2023-01-30T22:24:05.867Z,9.00
2023-01-30T22:26:33.752Z,10.98
2023-01-30T22:29:02.884Z,9.18
2023-01-30T22:31:34.546Z,8.43
2023-01-30T22:34:02.642Z,12.90
2023-01-30T22:36:31.725Z,7.18
2023-01-30T22:38:58.541Z,13.68
2023-01-30T22:41:26.791Z,7.20
2023-01-30T22:43:56.393Z,11.07
2023-01-30T22:46:31.447Z,10.30
2023-01-30T22:49:00.346Z,12.32
2023-01-30T22:51:29.340Z,9.02
2023-01-30T22:54:01.596Z,11.93
2023-01-30T22:56:38.262Z,10.50
2023-01-30T22:59:05.611Z,9.10
2023-01-30T23:01:34.911Z,14.20
2023-01-30T23:04:07.269Z,11.07
2023-01-30T23:06:34.363Z,13.95
2023-01-30T23:09:01.442Z,11.45
2023-01-30T23:11:35.792Z,11.73
2023-01-30T23:14:14.848Z,11.35
2023-01-30T23:16:43.692Z,12.13
2023-01-30T23:19:12.269Z,9.38
2023-01-30T23:21:44.428Z,11.13
2023-01-30T23:24:14.159Z,10.27
2023-01-30T23:26:43.467Z,8.73
2023-01-30T23:29:13.573Z,11.93
2023-01-30T23:31:42.004Z,10.20
2023-01-30T23:34:12.803Z,10.15
2023-01-30T23:36:40.011Z,10.13
2023-01-30T23:39:06.901Z,14.55
2023-01-30T23:41:36.407Z,9.77
2023-01-30T23:44:04.430Z,15.32
2023-01-30T23:46:33.801Z,9.77
2023-01-30T23:49:06.489Z,9.30
2023-01-30T23:51:35.408Z,7.60
2023-01-30T23:54:02.833Z,6.27
2023-01-30T23:56:31.235Z,11.13
2023-01-30T23:58:58.694Z,10.32
